createdAt,value
2017-12-14T00:01:26.296Z,66.60
2017-12-14T00:03:53.849Z,66.95
2017-12-14T00:06:21.409Z,66.69
2017-12-14T00:08:48.964Z,66.94
2017-12-14T00:11:16.505Z,66.86
2017-12-14T00:13:44.018Z,66.36
2017-12-14T00:16:11.603Z,66.36
2017-12-14T00:18:39.123Z,65.99
2017-12-14T00:21:06.692Z,66.51
2017-12-14T00:23:34.292Z,66.31
2017-12-14T00:26:01.827Z,66.58
2017-12-14T00:28:29.368Z,66.26
2017-12-14T00:30:56.915Z,65.72
2017-12-14T00:33:24.497Z,65.87
2017-12-14T00:35:52.118Z,65.85
2017-12-14T00:38:19.682Z,66.90
2017-12-14T00:40:47.305Z,66.74
2017-12-14T00:43:14.862Z,65.67
2017-12-14T00:45:42.645Z,65.23
2017-12-14T00:48:10.236Z,65.45
2017-12-14T00:50:37.786Z,66.82
2017-12-14T00:53:05.466Z,65.49
2017-12-14T00:55:33.034Z,66.62
2017-12-14T00:58:00.622Z,66.45
2017-12-14T01:00:28.227Z,66.98
2017-12-14T01:02:56.000Z,66.89
2017-12-14T01:05:23.580Z,66.77
2017-12-14T01:07:51.221Z,66.69
2017-12-14T01:10:19.004Z,67.81
2017-12-14T01:12:46.583Z,68.21
2017-12-14T01:15:14.178Z,68.31
2017-12-14T01:17:41.983Z,67.67
2017-12-14T01:20:09.572Z,66.70
2017-12-14T01:22:37.138Z,67.43
2017-12-14T01:25:04.894Z,67.36
2017-12-14T01:27:32.439Z,68.40
2017-12-14T01:29:59.983Z,70.89
2017-12-14T01:32:27.776Z,69.59
2017-12-14T01:34:55.312Z,69.33
2017-12-14T01:37:23.114Z,70.31
2017-12-14T01:39:50.659Z,69.90
2017-12-14T01:42:18.257Z,71.21
2017-12-14T01:44:45.854Z,70.61
2017-12-14T01:47:13.465Z,70.40
2017-12-14T01:49:41.253Z,70.45
2017-12-14T01:52:08.825Z,70.66
2017-12-14T01:54:36.500Z,70.98
2017-12-14T01:57:04.115Z,70.09
2017-12-14T01:59:32.358Z,70.17
2017-12-14T02:01:59.979Z,71.13
2017-12-14T02:04:27.559Z,71.90
2017-12-14T02:06:55.161Z,70.70
2017-12-14T02:09:22.723Z,69.89
2017-12-14T02:11:50.265Z,70.17
2017-12-14T02:14:17.847Z,70.98
2017-12-14T02:16:45.465Z,70.99
2017-12-14T02:19:13.037Z,69.99
2017-12-14T02:21:40.786Z,69.97
2017-12-14T02:24:08.386Z,69.72
2017-12-14T02:26:36.060Z,69.80
2017-12-14T02:29:03.661Z,69.17
2017-12-14T02:31:31.345Z,68.65
2017-12-14T02:33:59.247Z,70.00
2017-12-14T02:36:26.832Z,69.72
2017-12-14T02:38:54.430Z,68.95
2017-12-14T02:41:22.392Z,71.06
2017-12-14T02:43:50.200Z,71.63
2017-12-14T02:46:17.859Z,71.11
2017-12-14T02:48:45.445Z,70.38
2017-12-14T02:51:13.091Z,69.81
2017-12-14T02:53:40.760Z,71.40
2017-12-14T02:56:08.361Z,70.14
2017-12-14T02:58:35.972Z,71.33
2017-12-14T03:01:03.564Z,71.22
2017-12-14T03:03:31.380Z,71.19
2017-12-14T03:05:58.956Z,71.92
2017-12-14T03:08:26.605Z,71.94
2017-12-14T03:10:54.200Z,71.71
2017-12-14T03:13:21.798Z,71.21
2017-12-14T03:15:49.368Z,70.07
2017-12-14T03:18:17.180Z,70.69
2017-12-14T03:20:44.758Z,71.79
2017-12-14T03:23:12.336Z,70.46
2017-12-14T03:25:39.912Z,70.14
2017-12-14T03:28:07.485Z,70.26
2017-12-14T03:30:35.068Z,70.89
2017-12-14T03:33:02.841Z,70.61
2017-12-14T03:35:30.377Z,69.94
2017-12-14T03:37:57.967Z,69.20
2017-12-14T03:40:25.540Z,69.09
2017-12-14T03:42:53.122Z,70.10
2017-12-14T03:45:20.731Z,68.58
2017-12-14T03:47:48.281Z,68.99
2017-12-14T03:50:15.887Z,69.58
2017-12-14T03:52:43.696Z,69.49
2017-12-14T03:55:11.465Z,68.29
2017-12-14T03:57:38.992Z,69.21
2017-12-14T04:00:06.653Z,70.53
2017-12-14T04:02:34.484Z,69.77
2017-12-14T04:05:02.069Z,69.55
2017-12-14T04:07:29.654Z,69.85
2017-12-14T04:09:57.207Z,69.85
2017-12-14T04:12:24.847Z,69.51
2017-12-14T04:14:52.433Z,69.96
2017-12-14T04:17:20.036Z,69.95
2017-12-14T04:19:47.647Z,70.30
2017-12-14T04:22:15.223Z,69.85
2017-12-14T04:24:42.818Z,70.48
2017-12-14T04:27:10.603Z,71.81
2017-12-14T04:29:38.234Z,70.65
2017-12-14T04:32:05.898Z,71.21
2017-12-14T04:34:33.487Z,71.18
2017-12-14T04:37:01.155Z,71.08
2017-12-14T04:39:28.765Z,71.06
2017-12-14T04:41:56.370Z,71.36
2017-12-14T04:44:23.974Z,70.45
2017-12-14T04:46:51.550Z,71.11
2017-12-14T04:49:19.191Z,70.16
2017-12-14T04:51:46.986Z,69.97
2017-12-14T04:54:14.644Z,70.60
2017-12-14T04:56:42.270Z,70.51
2017-12-14T04:59:09.865Z,69.86
2017-12-14T05:01:37.493Z,69.17
2017-12-14T05:04:05.300Z,68.89
2017-12-14T05:06:33.268Z,68.65
2017-12-14T05:09:00.921Z,69.65
2017-12-14T05:11:28.571Z,69.87
2017-12-14T05:13:56.121Z,68.34
2017-12-14T05:16:23.791Z,68.98
2017-12-14T05:18:51.342Z,72.57
2017-12-14T05:21:18.951Z,75.06
2017-12-14T05:23:46.548Z,70.10
2017-12-14T05:26:14.115Z,69.58
2017-12-14T05:28:41.731Z,69.00
2017-12-14T05:31:09.389Z,68.87
2017-12-14T05:33:36.957Z,68.39
2017-12-14T05:36:04.585Z,69.64
2017-12-14T05:38:32.237Z,69.97
2017-12-14T05:40:59.859Z,71.01
2017-12-14T05:43:27.466Z,70.80
2017-12-14T05:45:55.974Z,72.14
2017-12-14T05:48:23.623Z,72.07
2017-12-14T05:50:51.245Z,72.77
2017-12-14T05:53:18.907Z,75.25
2017-12-14T05:55:46.476Z,75.36
2017-12-14T05:58:14.086Z,74.15
2017-12-14T06:00:41.687Z,75.06
2017-12-14T06:03:09.309Z,75.30
2017-12-14T06:05:36.897Z,74.72
2017-12-14T06:08:04.547Z,74.51
2017-12-14T06:10:32.139Z,72.89
2017-12-14T06:12:59.768Z,70.74
2017-12-14T06:15:28.301Z,69.11
2017-12-14T06:17:55.873Z,67.73
2017-12-14T06:20:23.765Z,66.31
2017-12-14T06:22:51.352Z,64.03
2017-12-14T06:25:18.947Z,64.66
2017-12-14T06:27:46.541Z,64.09
2017-12-14T06:30:14.261Z,64.48
2017-12-14T06:32:41.963Z,61.88
2017-12-14T06:35:09.543Z,60.89
2017-12-14T06:37:37.175Z,59.46
2017-12-14T06:40:04.852Z,56.87
2017-12-14T06:42:32.456Z,57.42
2017-12-14T06:45:00.072Z,58.05
2017-12-14T06:47:27.635Z,57.34
2017-12-14T06:49:55.236Z,56.57
2017-12-14T06:52:22.847Z,56.26
2017-12-14T06:54:50.979Z,57.88
2017-12-14T06:57:18.571Z,57.58
2017-12-14T06:59:46.168Z,55.06
2017-12-14T07:02:13.749Z,55.71
2017-12-14T07:04:41.445Z,55.46
2017-12-14T07:07:09.012Z,55.47
2017-12-14T07:09:36.632Z,53.94
2017-12-14T07:12:04.244Z,54.18
2017-12-14T07:14:31.803Z,54.69
2017-12-14T07:16:59.423Z,53.87
2017-12-14T07:19:27.033Z,53.76
2017-12-14T07:21:54.643Z,53.78
2017-12-14T07:24:22.320Z,54.53
2017-12-14T07:26:49.962Z,54.12
2017-12-14T07:29:17.578Z,54.53
2017-12-14T07:31:45.263Z,55.66
2017-12-14T07:34:12.852Z,55.86
2017-12-14T07:36:40.410Z,54.54
2017-12-14T07:39:08.060Z,51.86
2017-12-14T07:41:35.679Z,53.50
2017-12-14T07:44:15.085Z,54.36
2017-12-14T07:46:54.471Z,52.87
2017-12-14T07:49:24.913Z,52.59
2017-12-14T07:51:52.564Z,50.22
2017-12-14T07:54:20.199Z,48.68
2017-12-14T07:56:47.893Z,48.30
2017-12-14T07:59:15.482Z,45.18
2017-12-14T08:01:43.099Z,44.07
2017-12-14T08:04:10.787Z,44.56
2017-12-14T08:06:38.388Z,44.33
2017-12-14T08:09:06.003Z,43.49
2017-12-14T08:11:33.826Z,42.27
2017-12-14T08:14:01.460Z,42.22
2017-12-14T08:16:29.087Z,40.49
2017-12-14T08:18:56.671Z,40.46
2017-12-14T08:21:24.507Z,39.56
2017-12-14T08:23:52.155Z,41.00
2017-12-14T08:26:19.774Z,38.29
2017-12-14T08:28:47.338Z,42.47
2017-12-14T08:31:15.950Z,42.60
2017-12-14T08:33:43.670Z,44.08
2017-12-14T08:36:11.247Z,44.26
2017-12-14T08:38:38.923Z,42.87
2017-12-14T08:41:06.557Z,44.76
2017-12-14T08:43:34.147Z,42.70
2017-12-14T08:46:01.811Z,44.91
2017-12-14T08:48:29.393Z,47.82
2017-12-14T08:50:56.981Z,47.29
2017-12-14T08:53:24.655Z,47.86
2017-12-14T08:55:52.297Z,48.76
2017-12-14T08:58:19.945Z,50.23
2017-12-14T09:00:47.581Z,49.84
2017-12-14T09:03:15.246Z,51.52
2017-12-14T09:05:42.819Z,50.94
2017-12-14T09:08:10.407Z,50.25
2017-12-14T09:10:37.977Z,49.84
2017-12-14T09:13:05.566Z,51.35
2017-12-14T09:15:34.171Z,48.49
2017-12-14T09:18:01.976Z,47.05
2017-12-14T09:20:29.540Z,45.31
2017-12-14T09:22:57.168Z,43.71
2017-12-14T09:25:24.755Z,42.18
2017-12-14T09:27:52.371Z,41.99
2017-12-14T09:30:19.994Z,41.86
2017-12-14T09:32:47.550Z,39.76
2017-12-14T09:35:15.183Z,41.28
2017-12-14T09:37:42.826Z,40.82
2017-12-14T09:40:10.423Z,38.21
2017-12-14T09:42:37.958Z,36.44
2017-12-14T09:45:05.561Z,36.40
2017-12-14T09:47:33.156Z,37.33
2017-12-14T09:50:00.776Z,36.24
2017-12-14T09:52:28.386Z,35.77
2017-12-14T09:54:56.034Z,35.71
2017-12-14T09:57:23.640Z,40.63
2017-12-14T09:59:51.246Z,37.01
2017-12-14T10:02:18.860Z,36.91
2017-12-14T10:04:46.439Z,36.75
2017-12-14T10:07:14.256Z,35.93
2017-12-14T10:09:41.878Z,36.47
2017-12-14T10:12:09.519Z,39.22
2017-12-14T10:14:37.111Z,37.80
2017-12-14T10:17:04.764Z,37.14
2017-12-14T10:19:32.401Z,37.56
2017-12-14T10:22:00.041Z,36.81
2017-12-14T10:24:27.686Z,36.28
2017-12-14T10:26:55.250Z,36.33
2017-12-14T10:29:22.805Z,36.11
2017-12-14T10:31:50.450Z,35.82
2017-12-14T10:34:18.032Z,35.22
2017-12-14T10:36:45.628Z,35.57
2017-12-14T10:39:13.293Z,35.50
2017-12-14T10:41:40.928Z,36.09
2017-12-14T10:44:08.583Z,36.34
2017-12-14T10:46:36.209Z,37.38
2017-12-14T10:49:03.820Z,37.56
2017-12-14T10:51:31.432Z,37.78
2017-12-14T10:53:59.187Z,37.50
2017-12-14T10:56:26.841Z,37.70
2017-12-14T10:58:54.453Z,36.87
2017-12-14T11:01:27.588Z,39.05
2017-12-14T11:03:55.179Z,38.84
2017-12-14T11:06:22.879Z,37.58
2017-12-14T11:08:50.500Z,37.91
2017-12-14T11:11:18.134Z,38.30
2017-12-14T11:13:45.741Z,41.77
2017-12-14T11:16:13.368Z,41.57
2017-12-14T11:18:40.945Z,37.05
2017-12-14T11:21:08.736Z,37.66
2017-12-14T11:23:36.403Z,35.12
2017-12-14T11:26:03.993Z,35.25
2017-12-14T11:28:31.762Z,35.16
2017-12-14T11:30:59.441Z,34.84
2017-12-14T11:33:26.995Z,34.41
2017-12-14T11:35:54.583Z,34.20
2017-12-14T11:38:22.205Z,34.50
2017-12-14T11:40:49.731Z,35.88
2017-12-14T11:43:17.334Z,34.45
2017-12-14T11:45:44.919Z,34.76
2017-12-14T11:48:12.686Z,36.54
2017-12-14T11:50:40.564Z,39.39
2017-12-14T11:53:08.251Z,39.03
2017-12-14T11:56:24.408Z,37.80
2017-12-14T11:58:52.099Z,35.55
2017-12-14T12:01:19.704Z,34.49
2017-12-14T12:03:47.352Z,34.80
2017-12-14T12:06:14.977Z,33.52
2017-12-14T12:08:42.682Z,35.79
2017-12-14T12:11:10.781Z,38.13
2017-12-14T12:13:38.726Z,36.00
2017-12-14T12:16:06.404Z,37.87
2017-12-14T12:18:34.115Z,36.74
2017-12-14T12:21:01.820Z,35.70
2017-12-14T12:23:29.516Z,34.39
2017-12-14T12:25:57.066Z,34.32
2017-12-14T12:28:25.233Z,33.66
2017-12-14T12:30:52.850Z,33.86
2017-12-14T12:33:20.858Z,34.29
2017-12-14T12:35:48.450Z,33.05
2017-12-14T12:38:17.137Z,32.88
2017-12-14T12:43:20.527Z,32.55
2017-12-14T12:45:48.328Z,32.94
2017-12-14T12:48:15.886Z,32.90
2017-12-14T12:50:43.509Z,32.58
2017-12-14T12:53:11.154Z,31.91
2017-12-14T12:55:38.765Z,32.33
2017-12-14T12:58:06.371Z,32.47
2017-12-14T13:00:33.992Z,31.92
2017-12-14T13:03:01.615Z,33.21
2017-12-14T13:05:29.187Z,38.05
2017-12-14T13:07:56.831Z,38.88
2017-12-14T13:10:24.405Z,39.16
2017-12-14T13:12:52.009Z,39.34
2017-12-14T13:15:19.657Z,39.67
2017-12-14T13:17:47.240Z,40.36
2017-12-14T13:20:14.838Z,39.39
2017-12-14T13:22:42.602Z,40.01
2017-12-14T13:25:10.204Z,39.71
2017-12-14T13:27:37.804Z,40.09
2017-12-14T13:30:06.837Z,40.79
2017-12-14T13:32:34.438Z,42.39
2017-12-14T13:35:02.087Z,42.12
2017-12-14T13:37:29.928Z,41.06
2017-12-14T13:39:57.577Z,42.05
2017-12-14T13:42:25.303Z,41.27
2017-12-14T13:44:52.941Z,40.89
2017-12-14T13:47:20.863Z,41.25
2017-12-14T13:49:49.038Z,41.57
2017-12-14T13:52:16.742Z,41.86
2017-12-14T13:54:44.333Z,41.51
2017-12-14T13:57:12.102Z,40.28
2017-12-14T13:59:39.720Z,40.52
2017-12-14T14:02:07.407Z,42.37
2017-12-14T14:04:35.019Z,43.35
2017-12-14T14:07:02.604Z,45.36
2017-12-14T14:09:30.289Z,39.66
2017-12-14T14:11:57.803Z,39.60
2017-12-14T14:14:26.087Z,39.94
2017-12-14T14:16:53.690Z,38.29
2017-12-14T14:19:21.286Z,36.81
2017-12-14T14:21:49.848Z,37.23
2017-12-14T14:24:17.418Z,37.06
2017-12-14T14:26:45.069Z,37.15
2017-12-14T14:29:12.631Z,37.23
2017-12-14T14:31:40.249Z,37.90
2017-12-14T14:34:07.835Z,37.95
2017-12-14T14:36:35.368Z,38.13
2017-12-14T14:39:02.996Z,38.30
2017-12-14T14:41:30.562Z,39.15
2017-12-14T14:43:58.358Z,38.65
2017-12-14T14:46:26.057Z,38.88
2017-12-14T14:48:53.704Z,39.19
2017-12-14T14:51:21.284Z,38.92
2017-12-14T14:53:48.917Z,38.73
2017-12-14T14:56:16.541Z,37.74
2017-12-14T14:58:44.281Z,37.99
2017-12-14T15:01:12.076Z,37.86
2017-12-14T15:03:39.830Z,37.99
2017-12-14T15:06:07.377Z,38.07
2017-12-14T15:08:34.956Z,37.98
2017-12-14T15:11:02.515Z,38.25
2017-12-14T15:13:30.106Z,38.48
2017-12-14T15:15:57.684Z,37.77
2017-12-14T15:18:25.253Z,38.15
2017-12-14T15:20:52.847Z,38.40
2017-12-14T15:23:20.453Z,38.31
2017-12-14T15:25:48.823Z,38.43
2017-12-14T15:28:16.587Z,38.35
2017-12-14T15:30:44.350Z,38.48
2017-12-14T15:33:11.977Z,38.76
2017-12-14T15:35:39.577Z,39.01
2017-12-14T15:38:07.519Z,39.49
2017-12-14T15:40:35.676Z,39.47
2017-12-14T15:43:03.266Z,39.45
2017-12-14T15:45:30.840Z,39.48
2017-12-14T15:47:58.631Z,39.55
2017-12-14T15:50:26.324Z,39.49
2017-12-14T15:52:54.014Z,39.44
2017-12-14T15:55:21.610Z,39.56
2017-12-14T15:57:49.162Z,39.58
2017-12-14T16:00:17.024Z,39.69
2017-12-14T16:02:44.568Z,39.52
2017-12-14T16:05:12.149Z,39.27
2017-12-14T16:07:39.920Z,38.81
2017-12-14T16:10:07.807Z,38.23
2017-12-14T16:12:35.906Z,38.29
2017-12-14T16:15:03.591Z,38.38
2017-12-14T16:17:31.432Z,38.50
2017-12-14T16:19:58.987Z,38.39
2017-12-14T16:22:26.627Z,38.51
2017-12-14T16:24:54.230Z,37.94
2017-12-14T16:27:21.812Z,37.51
2017-12-14T16:29:49.389Z,38.04
2017-12-14T16:32:17.008Z,38.51
2017-12-14T16:34:44.891Z,39.00
2017-12-14T16:37:12.859Z,39.35
2017-12-14T16:39:40.443Z,40.07
2017-12-14T16:42:08.022Z,39.68
2017-12-14T16:44:35.686Z,39.83
2017-12-14T16:47:03.465Z,40.23
2017-12-14T16:49:31.012Z,40.57
2017-12-14T16:51:58.621Z,40.55
2017-12-14T16:54:26.198Z,40.59
2017-12-14T16:56:53.766Z,40.56
2017-12-14T16:59:21.521Z,40.43
2017-12-14T17:01:49.174Z,40.39
2017-12-14T17:04:16.778Z,40.43
2017-12-14T17:06:44.339Z,40.35
2017-12-14T17:09:12.044Z,40.24
2017-12-14T17:11:39.577Z,39.98
2017-12-14T17:14:07.398Z,40.39
2017-12-14T17:16:34.976Z,40.96
2017-12-14T17:19:02.561Z,41.55
2017-12-14T17:21:30.135Z,41.73
2017-12-14T17:23:57.813Z,41.63
2017-12-14T17:26:25.779Z,41.16
2017-12-14T17:28:53.373Z,41.75
2017-12-14T17:31:21.326Z,41.44
2017-12-14T17:33:48.925Z,40.97
2017-12-14T17:36:16.506Z,40.66
2017-12-14T17:38:44.085Z,40.55
2017-12-14T17:41:11.772Z,40.63
2017-12-14T17:43:39.351Z,40.32
2017-12-14T17:46:07.054Z,40.83
2017-12-14T17:48:34.630Z,40.88
2017-12-14T17:51:02.200Z,41.35
2017-12-14T17:53:30.007Z,41.43
2017-12-14T17:55:57.629Z,41.33
2017-12-14T17:58:25.188Z,41.41
2017-12-14T18:00:52.759Z,41.06
2017-12-14T18:03:20.448Z,41.39
2017-12-14T18:05:48.024Z,41.14
2017-12-14T18:08:15.687Z,41.84
2017-12-14T18:10:43.303Z,42.05
2017-12-14T18:13:10.852Z,43.03
2017-12-14T18:15:38.582Z,43.39
2017-12-14T18:18:06.137Z,44.10
2017-12-14T18:20:34.718Z,44.24
2017-12-14T18:23:02.940Z,44.94
2017-12-14T18:25:30.502Z,45.44
2017-12-14T18:27:58.083Z,46.00
2017-12-14T18:30:26.407Z,46.87
2017-12-14T18:32:55.084Z,46.61
2017-12-14T18:35:23.612Z,46.58
2017-12-14T18:37:51.982Z,47.32
2017-12-14T18:40:19.875Z,47.40
2017-12-14T18:42:47.667Z,47.44
2017-12-14T18:45:15.693Z,47.97
2017-12-14T18:47:43.595Z,47.22
2017-12-14T18:50:11.194Z,47.69
2017-12-14T18:52:38.888Z,48.30
2017-12-14T18:55:06.531Z,48.28
2017-12-14T18:57:34.560Z,47.25
2017-12-14T19:00:02.173Z,48.06
2017-12-14T19:02:29.826Z,48.24
2017-12-14T19:04:57.612Z,48.57
2017-12-14T19:07:25.265Z,48.26
2017-12-14T19:09:53.032Z,48.72
2017-12-14T19:12:20.886Z,49.81
2017-12-14T19:14:48.550Z,49.93
2017-12-14T19:17:16.251Z,49.35
2017-12-14T19:19:43.931Z,49.98
2017-12-14T19:22:12.567Z,50.25
2017-12-14T19:24:40.327Z,50.33
2017-12-14T19:27:07.952Z,49.75
2017-12-14T19:29:35.654Z,48.94
2017-12-14T19:32:03.332Z,48.62
2017-12-14T19:34:30.986Z,49.51
2017-12-14T19:36:59.259Z,49.76
2017-12-14T19:39:26.914Z,49.00
2017-12-14T19:41:54.565Z,50.31
2017-12-14T19:44:22.171Z,50.27
2017-12-14T19:46:49.775Z,49.81
2017-12-14T19:49:17.366Z,49.58
2017-12-14T19:51:44.939Z,49.58
2017-12-14T19:54:13.162Z,49.23
2017-12-14T19:56:40.735Z,48.58
2017-12-14T19:59:09.609Z,48.78
2017-12-14T20:01:37.285Z,49.60
2017-12-14T20:04:04.863Z,49.06
2017-12-14T20:06:32.684Z,48.54
2017-12-14T20:09:00.300Z,48.97
2017-12-14T20:11:27.894Z,48.36
2017-12-14T20:13:55.485Z,49.79
2017-12-14T20:16:23.163Z,49.40
2017-12-14T20:18:50.727Z,50.21
2017-12-14T20:21:19.238Z,49.90
2017-12-14T20:23:47.249Z,48.56
2017-12-14T20:26:14.904Z,49.75
2017-12-14T20:28:43.235Z,49.32
2017-12-14T20:31:10.957Z,49.52
2017-12-14T20:33:39.786Z,49.73
2017-12-14T20:36:07.926Z,49.84
2017-12-14T20:38:41.150Z,49.46
2017-12-14T20:41:09.096Z,48.98
2017-12-14T20:43:50.822Z,49.04
2017-12-14T20:46:18.424Z,49.59
2017-12-14T20:48:58.317Z,50.04
2017-12-14T20:51:26.615Z,50.61
2017-12-14T20:54:07.198Z,50.19
2017-12-14T20:56:34.971Z,50.63
2017-12-14T20:59:03.392Z,50.67
2017-12-14T21:01:31.013Z,49.87
2017-12-14T21:03:58.541Z,50.11
2017-12-14T21:06:26.133Z,50.15
2017-12-14T21:08:53.723Z,50.94
2017-12-14T21:11:21.291Z,51.23
2017-12-14T21:13:56.657Z,50.92
2017-12-14T21:16:35.010Z,50.76
2017-12-14T21:19:02.644Z,51.35
2017-12-14T21:21:30.215Z,50.56
2017-12-14T21:23:57.748Z,51.43
2017-12-14T21:26:25.315Z,51.13
2017-12-14T21:28:55.003Z,50.83
2017-12-14T21:31:22.554Z,50.71
2017-12-14T21:33:50.209Z,51.21
2017-12-14T21:36:17.832Z,51.55
2017-12-14T21:38:45.971Z,49.68
2017-12-14T21:41:14.752Z,51.37
2017-12-14T21:43:42.388Z,52.40
2017-12-14T21:46:15.660Z,51.53
2017-12-14T21:48:43.213Z,54.10
2017-12-14T21:51:10.963Z,53.54
2017-12-14T21:53:38.531Z,53.24
2017-12-14T21:56:06.111Z,52.99
2017-12-14T21:58:33.940Z,53.24
2017-12-14T22:01:01.721Z,53.55
2017-12-14T22:03:29.739Z,53.13
2017-12-14T22:05:57.290Z,54.42
2017-12-14T22:08:24.875Z,54.33
2017-12-14T22:10:52.432Z,54.70
2017-12-14T22:13:19.960Z,54.83
2017-12-14T22:15:47.529Z,55.55
2017-12-14T22:18:15.078Z,55.47
2017-12-14T22:20:43.125Z,55.73
2017-12-14T22:23:10.702Z,55.80
2017-12-14T22:25:38.240Z,54.54
2017-12-14T22:28:05.853Z,54.79
2017-12-14T22:30:33.418Z,54.78
2017-12-14T22:33:01.778Z,56.03
2017-12-14T22:35:29.312Z,56.28
2017-12-14T22:37:56.897Z,55.58
2017-12-14T22:40:24.468Z,55.38
2017-12-14T22:42:51.972Z,55.63
2017-12-14T22:45:19.543Z,55.22
2017-12-14T22:47:47.076Z,55.51
2017-12-14T22:50:14.618Z,55.83
2017-12-14T22:52:42.168Z,56.02
2017-12-14T22:55:09.762Z,54.36
2017-12-14T22:57:37.525Z,54.19
2017-12-14T23:00:06.311Z,54.64
2017-12-14T23:02:34.072Z,56.41
2017-12-14T23:05:01.595Z,56.83
2017-12-14T23:07:29.192Z,55.88
2017-12-14T23:09:56.726Z,56.47
2017-12-14T23:12:24.299Z,56.57
2017-12-14T23:14:51.868Z,56.88
2017-12-14T23:17:19.652Z,58.23
2017-12-14T23:19:47.243Z,58.55
2017-12-14T23:22:14.820Z,58.88
2017-12-14T23:24:42.467Z,60.08
2017-12-14T23:27:10.256Z,60.01
2017-12-14T23:29:37.868Z,61.21
2017-12-14T23:32:05.454Z,61.01
2017-12-14T23:34:32.976Z,60.65
2017-12-14T23:37:00.508Z,59.27
2017-12-14T23:39:28.379Z,61.40
2017-12-14T23:41:55.902Z,62.47
2017-12-14T23:44:24.385Z,63.19
2017-12-14T23:46:53.159Z,63.64
2017-12-14T23:49:21.194Z,63.08
2017-12-14T23:51:49.446Z,63.73
2017-12-14T23:54:17.377Z,64.77
2017-12-14T23:56:45.754Z,64.51
2017-12-14T23:59:14.705Z,63.35
